Time;durP1;ratioP1;P1;durP2;ratioP2;P2;SDS_P1;SDS_P2;PMS_P1;PMS_P2;Temp;Humidity;BMP_temperature;BMP_pressure;BME280_temperature;BME280_humidity;BME280_pressure;Samples;Min_cycle;Max_cycle;Signal;HPM_P1;HPM_P2
2023/09/28 00:01:35;;;;;;;;;;;17.90;94.60;;;;;;5094602;28;19912;-71
2023/09/28 00:04:01;;;;;;;;;;;17.80;94.60;;;;;;5095929;28;19916;-71
2023/09/28 00:06:27;;;;;;;;;;;17.90;94.60;;;;;;5089123;28;20410;-71
2023/09/28 00:08:52;;;;;;;;;;;17.90;94.50;;;;;;5090291;28;20348;-71
2023/09/28 00:11:18;;;;;;;;;;;17.90;94.50;;;;;;5096702;28;19909;-71
2023/09/28 00:13:43;;;;;;;;;;;17.90;94.50;;;;;;5089514;28;19919;-71
2023/09/28 00:16:09;;;;;;;;;;;17.90;94.50;;;;;;5089397;28;19959;-71
2023/09/28 00:18:34;;;;;;;;;;;17.90;94.50;;;;;;5088838;28;20677;-71
2023/09/28 00:21:01;;;;;;;;;;;17.90;94.60;;;;;;5088787;28;19920;-71
2023/09/28 00:23:26;;;;;;;;;;;17.90;94.50;;;;;;5087815;28;19995;-71
2023/09/28 00:25:52;;;;;;;;;;;17.90;94.50;;;;;;5089863;28;19991;-71
2023/09/28 00:28:17;;;;;;;;;;;17.80;94.50;;;;;;5097229;27;19921;-71
2023/09/28 00:30:44;;;;;;;;;;;17.90;94.50;;;;;;5093474;28;19911;-71
2023/09/28 00:33:09;;;;;;;;;;;17.80;94.50;;;;;;5107933;28;19912;-71
2023/09/28 00:35:35;;;;;;;;;;;17.80;94.50;;;;;;5093229;28;19915;-71
2023/09/28 00:38:00;;;;;;;;;;;17.80;94.50;;;;;;5093181;28;19920;-71
2023/09/28 00:40:31;;;;;;;;;;;17.90;94.60;;;;;;5099840;28;20384;-71
2023/09/28 00:42:57;;;;;;;;;;;17.90;94.50;;;;;;5090276;28;19916;-71
2023/09/28 00:45:23;;;;;;;;;;;17.80;94.40;;;;;;5093186;28;19916;-71
2023/09/28 00:47:54;;;;;;;;;;;17.90;94.50;;;;;;5091558;28;20344;-71
2023/09/28 00:50:20;;;;;;;;;;;17.90;94.40;;;;;;5101827;28;20399;-71
2023/09/28 00:52:52;;;;;;;;;;;17.80;94.40;;;;;;5101379;28;19912;-71
2023/09/28 00:55:19;;;;;;;;;;;17.80;94.30;;;;;;5091503;28;19953;-71
2023/09/28 00:57:46;;;;;;;;;;;17.80;94.40;;;;;;5092684;28;20273;-71
2023/09/28 01:02:51;;;;;;;;;;;17.90;94.40;;;;;;5100668;28;20626;-71
2023/09/28 01:05:17;;;;;;;;;;;17.80;94.40;;;;;;5092176;28;20499;-71
2023/09/28 01:07:42;;;;;;;;;;;17.80;94.40;;;;;;5100805;28;19909;-71
2023/09/28 01:10:09;;;;;;;;;;;17.80;94.40;;;;;;5100628;28;19939;-71
2023/09/28 01:12:38;;;;;;;;;;;17.80;94.40;;;;;;5091973;28;19950;-71
2023/09/28 01:15:06;;;;;;;;;;;17.80;94.40;;;;;;5092183;28;19912;-71
2023/09/28 01:17:31;;;;;;;;;;;17.80;94.40;;;;;;5098298;28;20010;-71
2023/09/28 01:19:58;;;;;;;;;;;17.80;94.40;;;;;;5094128;28;20007;-71
2023/09/28 01:22:24;;;;;;;;;;;17.80;94.40;;;;;;5090699;28;20305;-71
2023/09/28 01:24:49;;;;;;;;;;;17.90;94.40;;;;;;5100302;28;19940;-71
2023/09/28 01:27:15;;;;;;;;;;;17.80;94.30;;;;;;5099913;28;19920;-71
2023/09/28 01:29:40;;;;;;;;;;;17.80;94.30;;;;;;5092173;28;19959;-71
2023/09/28 01:32:06;;;;;;;;;;;17.80;94.70;;;;;;5099006;28;19912;-71
2023/09/28 01:34:32;;;;;;;;;;;17.80;94.30;;;;;;5089951;28;19916;-71
2023/09/28 01:36:57;;;;;;;;;;;17.80;94.70;;;;;;5099899;28;20310;-71
2023/09/28 01:39:23;;;;;;;;;;;17.80;94.30;;;;;;5091246;28;19908;-71
2023/09/28 01:41:48;;;;;;;;;;;17.80;94.30;;;;;;5091540;28;19919;-71
2023/09/28 01:44:14;;;;;;;;;;;17.80;94.30;;;;;;5090176;28;19920;-71
2023/09/28 01:46:39;;;;;;;;;;;17.80;94.30;;;;;;5091561;28;19919;-71
2023/09/28 01:49:05;;;;;;;;;;;17.80;94.30;;;;;;5091220;28;19943;-71
2023/09/28 01:51:30;;;;;;;;;;;17.80;94.40;;;;;;5091255;28;19995;-71
2023/09/28 01:53:56;;;;;;;;;;;17.80;94.40;;;;;;5090763;28;19912;-71
2023/09/28 01:56:21;;;;;;;;;;;17.80;94.40;;;;;;5090263;28;19937;-71
2023/09/28 01:58:47;;;;;;;;;;;17.80;94.40;;;;;;5091820;28;19908;-71
2023/09/28 02:01:32;;;;;;;;;;;17.80;94.40;;;;;;5099446;28;19922;-71
2023/09/28 02:03:58;;;;;;;;;;;17.80;94.40;;;;;;5098826;28;19915;-71
2023/09/28 02:06:24;;;;;;;;;;;17.80;94.50;;;;;;5096281;28;19911;-71
2023/09/28 02:08:49;;;;;;;;;;;17.80;94.60;;;;;;5094611;28;19912;-71
2023/09/28 02:11:15;;;;;;;;;;;17.70;94.60;;;;;;5089540;28;19985;-71
2023/09/28 02:13:41;;;;;;;;;;;17.70;94.70;;;;;;5091295;28;20361;-71
2023/09/28 02:16:11;;;;;;;;;;;17.70;94.80;;;;;;5089706;28;19957;-71
2023/09/28 02:18:37;;;;;;;;;;;17.70;94.70;;;;;;5090045;28;19908;-71
2023/09/28 02:21:03;;;;;;;;;;;17.70;94.70;;;;;;5091207;28;19981;-71
2023/09/28 02:23:28;;;;;;;;;;;17.70;94.80;;;;;;5091328;28;19908;-71
2023/09/28 02:25:54;;;;;;;;;;;17.70;95.10;;;;;;5099372;28;20490;-71
2023/09/28 02:28:19;;;;;;;;;;;17.70;94.80;;;;;;5091335;28;19993;-71
2023/09/28 02:30:44;;;;;;;;;;;17.70;94.80;;;;;;5091306;28;19908;-71
2023/09/28 02:33:10;;;;;;;;;;;17.70;94.80;;;;;;5090862;28;19952;-71
2023/09/28 02:35:36;;;;;;;;;;;17.70;94.80;;;;;;5091218;28;20268;-71
2023/09/28 02:38:01;;;;;;;;;;;17.60;94.90;;;;;;5089309;28;20025;-71
2023/09/28 02:40:29;;;;;;;;;;;17.60;94.90;;;;;;5090952;28;19908;-71
2023/09/28 02:42:55;;;;;;;;;;;17.60;94.80;;;;;;5096124;28;19959;-71
2023/09/28 02:45:21;;;;;;;;;;;17.60;94.80;;;;;;5090536;28;19965;-71
2023/09/28 02:47:47;;;;;;;;;;;17.60;94.80;;;;;;5089479;28;19916;-71
2023/09/28 02:50:13;;;;;;;;;;;17.60;94.90;;;;;;5090557;28;19911;-71
2023/09/28 02:52:40;;;;;;;;;;;17.60;95.00;;;;;;5089902;28;19912;-71
2023/09/28 02:55:07;;;;;;;;;;;17.50;95.00;;;;;;5125209;27;20018;-71
2023/09/28 02:57:33;;;;;;;;;;;17.50;95.10;;;;;;5103184;28;19957;-71
2023/09/28 02:59:59;;;;;;;;;;;17.60;95.10;;;;;;5098540;28;19915;-71
2023/09/28 03:02:25;;;;;;;;;;;17.50;95.10;;;;;;5088823;28;20335;-71
2023/09/28 03:04:50;;;;;;;;;;;17.50;95.10;;;;;;5090480;28;19916;-71
2023/09/28 03:07:16;;;;;;;;;;;17.50;95.10;;;;;;5098299;28;19961;-71
2023/09/28 03:09:42;;;;;;;;;;;17.50;95.10;;;;;;5090536;28;20364;-71
2023/09/28 03:12:07;;;;;;;;;;;17.50;95.20;;;;;;5098628;28;19915;-71
2023/09/28 03:14:34;;;;;;;;;;;17.50;95.10;;;;;;5090016;28;19908;-71
2023/09/28 03:16:59;;;;;;;;;;;17.40;95.00;;;;;;5090059;28;20376;-71
2023/09/28 03:19:25;;;;;;;;;;;17.40;95.20;;;;;;5090330;28;19908;-71
2023/09/28 03:21:50;;;;;;;;;;;17.40;95.30;;;;;;5089952;28;20379;-71
2023/09/28 03:24:16;;;;;;;;;;;17.40;95.10;;;;;;5089922;28;20562;-71
2023/09/28 03:26:41;;;;;;;;;;;17.40;95.10;;;;;;5090166;28;19916;-71
2023/09/28 03:29:07;;;;;;;;;;;17.40;95.20;;;;;;5089750;28;19947;-71
2023/09/28 03:31:33;;;;;;;;;;;17.40;95.20;;;;;;5089758;28;19958;-71
2023/09/28 03:33:59;;;;;;;;;;;17.40;95.20;;;;;;5088038;28;19908;-71
2023/09/28 03:36:25;;;;;;;;;;;17.40;95.30;;;;;;5086516;28;19930;-71
2023/09/28 03:38:50;;;;;;;;;;;17.40;95.20;;;;;;5086499;28;19937;-71
2023/09/28 03:41:17;;;;;;;;;;;17.30;95.10;;;;;;5088591;28;19969;-71
2023/09/28 03:43:43;;;;;;;;;;;17.40;95.20;;;;;;5094808;28;19912;-71
2023/09/28 03:46:09;;;;;;;;;;;17.30;95.10;;;;;;5089369;28;19908;-71
2023/09/28 03:48:34;;;;;;;;;;;17.30;95.00;;;;;;5089902;28;20276;-71
2023/09/28 03:51:00;;;;;;;;;;;17.30;95.10;;;;;;5089735;28;19916;-71
2023/09/28 03:53:26;;;;;;;;;;;17.30;95.20;;;;;;5089255;28;20353;-71
2023/09/28 03:55:52;;;;;;;;;;;17.30;95.30;;;;;;5089245;28;19915;-71
2023/09/28 03:58:17;;;;;;;;;;;17.30;95.20;;;;;;5089882;28;20341;-71
2023/09/28 04:00:43;;;;;;;;;;;17.30;95.20;;;;;;5089337;28;19908;-71
2023/09/28 04:03:09;;;;;;;;;;;17.30;95.30;;;;;;5089408;28;19914;-71
2023/09/28 04:05:35;;;;;;;;;;;17.30;95.20;;;;;;5088128;28;19908;-71
2023/09/28 04:08:00;;;;;;;;;;;17.30;95.30;;;;;;5089236;28;19985;-71
2023/09/28 04:10:26;;;;;;;;;;;17.20;95.20;;;;;;5093281;28;19915;-71
2023/09/28 04:12:52;;;;;;;;;;;17.20;95.20;;;;;;5092384;28;19935;-71
2023/09/28 04:15:18;;;;;;;;;;;17.20;95.20;;;;;;5097682;28;20357;-71
2023/09/28 04:17:43;;;;;;;;;;;17.20;95.20;;;;;;5087581;28;19914;-71
2023/09/28 04:20:10;;;;;;;;;;;17.20;95.30;;;;;;5089281;28;20222;-71
2023/09/28 04:22:35;;;;;;;;;;;17.20;95.30;;;;;;5089120;28;19920;-71
2023/09/28 04:25:01;;;;;;;;;;;17.20;95.30;;;;;;5088911;28;19918;-71
2023/09/28 04:27:27;;;;;;;;;;;17.20;95.30;;;;;;5089443;28;19927;-71
2023/09/28 04:29:52;;;;;;;;;;;17.20;95.30;;;;;;5087945;28;19919;-71
2023/09/28 04:32:18;;;;;;;;;;;17.10;95.20;;;;;;5093193;28;20597;-71
2023/09/28 04:34:43;;;;;;;;;;;17.10;95.30;;;;;;5093652;28;19908;-71
2023/09/28 04:37:09;;;;;;;;;;;17.10;95.30;;;;;;5087821;28;19915;-71
2023/09/28 04:39:34;;;;;;;;;;;17.10;95.30;;;;;;5088002;28;19915;-71
2023/09/28 04:42:00;;;;;;;;;;;17.10;95.30;;;;;;5090136;28;20013;-71
2023/09/28 04:44:26;;;;;;;;;;;17.10;95.30;;;;;;5093046;28;19920;-71
2023/09/28 04:46:51;;;;;;;;;;;17.10;95.30;;;;;;5089133;28;19936;-71
2023/09/28 04:49:20;;;;;;;;;;;17.10;95.30;;;;;;5092991;28;20276;-71
2023/09/28 04:51:45;;;;;;;;;;;17.10;95.20;;;;;;5092874;28;20014;-71
2023/09/28 04:54:11;;;;;;;;;;;17.00;95.30;;;;;;5087268;28;19927;-71
2023/09/28 04:56:36;;;;;;;;;;;17.00;95.40;;;;;;5089321;28;19912;-71
2023/09/28 04:59:05;;;;;;;;;;;17.00;95.40;;;;;;5088676;28;20008;-71
2023/09/28 05:01:31;;;;;;;;;;;17.00;95.40;;;;;;5087659;28;19916;-71
2023/09/28 05:03:56;;;;;;;;;;;17.00;95.40;;;;;;5096908;28;19930;-71
2023/09/28 05:06:22;;;;;;;;;;;17.00;95.40;;;;;;5089020;28;20005;-71
2023/09/28 05:08:47;;;;;;;;;;;17.00;95.30;;;;;;5088859;28;19908;-71
2023/09/28 05:11:13;;;;;;;;;;;17.00;95.40;;;;;;5085397;28;19919;-71
2023/09/28 05:13:39;;;;;;;;;;;17.00;95.40;;;;;;5090036;28;19908;-71
2023/09/28 05:16:04;;;;;;;;;;;16.90;95.40;;;;;;5091411;28;19953;-71
2023/09/28 05:18:30;;;;;;;;;;;16.90;95.40;;;;;;5092442;28;19916;-71
2023/09/28 05:20:55;;;;;;;;;;;16.90;95.40;;;;;;5092236;28;19912;-71
2023/09/28 05:23:21;;;;;;;;;;;16.90;95.40;;;;;;5092534;28;19916;-71
2023/09/28 05:25:47;;;;;;;;;;;16.90;95.40;;;;;;5092400;28;19926;-71
2023/09/28 05:28:13;;;;;;;;;;;16.90;95.40;;;;;;5091263;28;19912;-71
2023/09/28 05:30:38;;;;;;;;;;;16.90;95.30;;;;;;5092685;28;19965;-71
2023/09/28 05:33:04;;;;;;;;;;;16.90;95.30;;;;;;5092035;28;19958;-71
2023/09/28 05:35:31;;;;;;;;;;;16.90;95.30;;;;;;5091429;28;20287;-71
2023/09/28 05:37:56;;;;;;;;;;;16.90;95.30;;;;;;5092287;28;20024;-71
2023/09/28 05:40:22;;;;;;;;;;;16.90;95.40;;;;;;5099579;28;19958;-71
2023/09/28 05:42:48;;;;;;;;;;;16.90;95.40;;;;;;5089576;28;19923;-71
2023/09/28 05:45:14;;;;;;;;;;;16.90;95.50;;;;;;5099773;28;19908;-71
2023/09/28 05:47:40;;;;;;;;;;;16.80;95.60;;;;;;5092080;28;19926;-71
2023/09/28 05:50:07;;;;;;;;;;;16.80;95.60;;;;;;5092684;28;20381;-71
2023/09/28 05:52:33;;;;;;;;;;;16.80;95.50;;;;;;5091698;28;19912;-71
2023/09/28 05:54:58;;;;;;;;;;;16.80;95.40;;;;;;5084994;28;19915;-71
2023/09/28 05:57:24;;;;;;;;;;;16.80;95.40;;;;;;5087384;28;19943;-71
2023/09/28 05:59:49;;;;;;;;;;;16.80;95.50;;;;;;5099910;28;19916;-71
2023/09/28 06:02:15;;;;;;;;;;;16.80;95.50;;;;;;5091090;28;19916;-71
2023/09/28 06:04:41;;;;;;;;;;;16.80;95.50;;;;;;5090864;28;19930;-71
2023/09/28 06:07:07;;;;;;;;;;;16.80;95.50;;;;;;5090851;28;19915;-71
2023/09/28 06:09:33;;;;;;;;;;;16.80;95.60;;;;;;5096577;28;20360;-71
2023/09/28 06:12:00;;;;;;;;;;;16.80;95.50;;;;;;5093397;28;19934;-71
2023/09/28 06:14:25;;;;;;;;;;;16.80;95.60;;;;;;5090585;28;19970;-71
2023/09/28 06:16:51;;;;;;;;;;;16.80;95.70;;;;;;5090879;28;20017;-71
2023/09/28 06:19:16;;;;;;;;;;;16.80;95.40;;;;;;5082692;28;19912;-71
2023/09/28 06:21:42;;;;;;;;;;;16.80;95.40;;;;;;5090747;28;20442;-71
2023/09/28 06:24:07;;;;;;;;;;;16.80;95.40;;;;;;5095006;28;19912;-71
2023/09/28 06:26:33;;;;;;;;;;;16.80;95.40;;;;;;5096297;28;19923;-71
2023/09/28 06:28:59;;;;;;;;;;;16.80;95.30;;;;;;5090687;28;19935;-71
2023/09/28 06:31:24;;;;;;;;;;;16.80;95.30;;;;;;5091055;28;19951;-71
2023/09/28 06:33:50;;;;;;;;;;;16.80;95.30;;;;;;5123572;27;19951;-71
2023/09/28 06:36:16;;;;;;;;;;;16.90;95.30;;;;;;5094227;28;19912;-71
2023/09/28 06:38:41;;;;;;;;;;;16.90;95.20;;;;;;5090559;28;19961;-71
2023/09/28 06:41:07;;;;;;;;;;;16.90;95.30;;;;;;5089240;28;19912;-71
2023/09/28 06:43:32;;;;;;;;;;;16.90;95.20;;;;;;5088663;28;19961;-71
2023/09/28 06:45:58;;;;;;;;;;;16.90;95.20;;;;;;5100254;28;19920;-71
2023/09/28 06:48:24;;;;;;;;;;;16.90;95.20;;;;;;5090517;28;19920;-71
2023/09/28 06:50:49;;;;;;;;;;;16.90;95.10;;;;;;5090683;28;19992;-71
2023/09/28 06:53:18;;;;;;;;;;;17.00;95.20;;;;;;5089921;28;19912;-71
2023/09/28 06:55:44;;;;;;;;;;;16.90;95.10;;;;;;5090014;28;19919;-71
2023/09/28 06:58:13;;;;;;;;;;;17.00;95.10;;;;;;5089980;28;19912;-71
2023/09/28 07:00:39;;;;;;;;;;;17.00;95.10;;;;;;5090236;28;20357;-71
2023/09/28 07:03:05;;;;;;;;;;;17.00;95.00;;;;;;5090083;28;19977;-71
2023/09/28 07:05:33;;;;;;;;;;;17.00;95.00;;;;;;5089872;28;19913;-71
2023/09/28 07:08:00;;;;;;;;;;;17.00;95.00;;;;;;5081599;28;19923;-71
2023/09/28 07:10:25;;;;;;;;;;;17.00;95.00;;;;;;5098661;28;19942;-71
2023/09/28 07:12:51;;;;;;;;;;;17.10;95.00;;;;;;5090396;28;20527;-71
2023/09/28 07:15:16;;;;;;;;;;;17.00;95.00;;;;;;5092442;28;20265;-71
2023/09/28 07:17:42;;;;;;;;;;;17.10;95.00;;;;;;5093616;28;19918;-71
2023/09/28 07:20:08;;;;;;;;;;;17.10;95.00;;;;;;5097961;28;20517;-71
2023/09/28 07:22:33;;;;;;;;;;;17.10;95.00;;;;;;5089610;28;19912;-71
2023/09/28 07:24:59;;;;;;;;;;;17.20;95.00;;;;;;5089570;28;19908;-71
2023/09/28 07:27:31;;;;;;;;;;;17.10;95.00;;;;;;5089947;28;19928;-71
2023/09/28 07:29:57;;;;;;;;;;;17.20;95.00;;;;;;5081307;28;20026;-71
2023/09/28 07:32:22;;;;;;;;;;;17.20;95.00;;;;;;5089670;28;19912;-71
2023/09/28 07:34:48;;;;;;;;;;;17.20;95.00;;;;;;5098041;28;19908;-71
2023/09/28 07:37:15;;;;;;;;;;;17.20;95.00;;;;;;5092296;28;19994;-71
2023/09/28 07:39:40;;;;;;;;;;;17.30;95.00;;;;;;5095217;28;19966;-71
2023/09/28 07:42:08;;;;;;;;;;;17.30;95.00;;;;;;5089766;28;19954;-71
2023/09/28 07:44:34;;;;;;;;;;;17.30;95.00;;;;;;5087799;28;19908;-71
2023/09/28 07:47:00;;;;;;;;;;;17.30;95.00;;;;;;5100843;28;19915;-71
2023/09/28 07:49:25;;;;;;;;;;;17.30;95.00;;;;;;5089500;28;20273;-71
2023/09/28 07:51:52;;;;;;;;;;;17.40;95.00;;;;;;5081496;28;19912;-71
2023/09/28 07:54:18;;;;;;;;;;;17.40;95.00;;;;;;5091603;28;19923;-71
2023/09/28 07:56:43;;;;;;;;;;;17.40;95.10;;;;;;5088095;28;20287;-71
2023/09/28 07:59:09;;;;;;;;;;;17.40;95.00;;;;;;5088939;28;19913;-71
2023/09/28 08:01:38;;;;;;;;;;;17.40;95.00;;;;;;5089354;28;19916;-71
2023/09/28 08:04:04;;;;;;;;;;;17.50;95.00;;;;;;5080170;28;19962;-71
2023/09/28 08:06:30;;;;;;;;;;;17.50;95.00;;;;;;5079137;28;19908;-71
2023/09/28 08:08:56;;;;;;;;;;;17.50;95.00;;;;;;5088977;28;19918;-71
2023/09/28 08:11:22;;;;;;;;;;;17.50;95.00;;;;;;5088554;28;19919;-71
2023/09/28 08:13:47;;;;;;;;;;;17.60;95.00;;;;;;5088764;28;19912;-71
2023/09/28 08:16:13;;;;;;;;;;;17.60;94.90;;;;;;5099859;28;19908;-71
2023/09/28 08:18:39;;;;;;;;;;;17.60;94.90;;;;;;5094339;28;19912;-71
2023/09/28 08:21:04;;;;;;;;;;;17.70;94.90;;;;;;5088500;28;20477;-71
2023/09/28 08:23:33;;;;;;;;;;;17.70;94.80;;;;;;5088439;28;19916;-71
2023/09/28 08:25:58;;;;;;;;;;;17.70;94.90;;;;;;5079579;28;19921;-71
2023/09/28 08:28:24;;;;;;;;;;;17.80;95.00;;;;;;5088194;28;20004;-71
2023/09/28 08:30:49;;;;;;;;;;;17.80;94.90;;;;;;5088539;28;20325;-71
2023/09/28 08:33:16;;;;;;;;;;;17.90;94.80;;;;;;5112292;28;20295;-71
2023/09/28 08:35:48;;;;;;;;;;;17.90;94.70;;;;;;5087733;28;19920;-71
2023/09/28 08:38:15;;;;;;;;;;;18.00;94.70;;;;;;5087666;28;20489;-71
2023/09/28 08:40:41;;;;;;;;;;;18.10;94.80;;;;;;5092494;28;20003;-71
2023/09/28 08:43:08;;;;;;;;;;;18.10;94.70;;;;;;5086188;28;19924;-71
2023/09/28 08:45:33;;;;;;;;;;;18.10;94.50;;;;;;5088112;28;19919;-71
2023/09/28 08:48:00;;;;;;;;;;;18.10;94.60;;;;;;5087337;28;19909;-71
2023/09/28 08:50:33;;;;;;;;;;;18.10;94.60;;;;;;5094702;28;20017;-71
2023/09/28 08:52:59;;;;;;;;;;;18.10;94.50;;;;;;5094524;28;19912;-71
2023/09/28 08:55:27;;;;;;;;;;;18.20;94.50;;;;;;5099993;28;20331;-71
2023/09/28 08:57:53;;;;;;;;;;;18.30;94.80;;;;;;5101328;28;19919;-71
2023/09/28 09:00:23;;;;;;;;;;;18.30;94.60;;;;;;5101081;28;20003;-71
2023/09/28 09:02:50;;;;;;;;;;;18.30;94.60;;;;;;5092711;28;19916;-71
2023/09/28 09:05:15;;;;;;;;;;;18.40;94.60;;;;;;5092560;28;19912;-71
2023/09/28 09:07:42;;;;;;;;;;;18.40;94.50;;;;;;5092765;28;19912;-71
2023/09/28 09:10:11;;;;;;;;;;;18.40;94.50;;;;;;5090989;28;20003;-71
2023/09/28 09:12:37;;;;;;;;;;;18.50;94.50;;;;;;5093052;28;19912;-71
2023/09/28 09:15:04;;;;;;;;;;;18.50;94.40;;;;;;5094631;28;19908;-71
2023/09/28 09:17:33;;;;;;;;;;;18.60;94.70;;;;;;5092181;28;19908;-71
2023/09/28 09:19:59;;;;;;;;;;;18.60;94.50;;;;;;5090358;28;20045;-71
2023/09/28 09:22:25;;;;;;;;;;;18.70;94.60;;;;;;5092019;28;19952;-71
2023/09/28 09:24:54;;;;;;;;;;;18.70;94.50;;;;;;5092044;28;19916;-71
2023/09/28 09:27:32;;;;;;;;;;;18.70;94.70;;;;;;5083684;28;20368;-71
2023/09/28 09:30:08;;;;;;;;;;;18.70;94.50;;;;;;5091834;28;19919;-71
2023/09/28 09:32:38;;;;;;;;;;;18.80;94.50;;;;;;5091702;28;19943;-71
2023/09/28 09:35:06;;;;;;;;;;;18.80;94.40;;;;;;5086501;28;19973;-71
2023/09/28 09:37:31;;;;;;;;;;;18.80;94.30;;;;;;5087093;28;20444;-71
2023/09/28 09:40:12;;;;;;;;;;;18.90;94.40;;;;;;5092074;28;20002;-71
2023/09/28 09:42:38;;;;;;;;;;;18.90;94.40;;;;;;5085005;28;19970;-71
2023/09/28 09:45:05;;;;;;;;;;;18.90;94.30;;;;;;5105553;27;19940;-71
2023/09/28 09:47:30;;;;;;;;;;;18.90;94.30;;;;;;5098489;28;19919;-71
2023/09/28 09:49:56;;;;;;;;;;;18.90;94.30;;;;;;5091142;28;19912;-71
2023/09/28 09:52:24;;;;;;;;;;;19.00;94.30;;;;;;5084800;28;19919;-71
2023/09/28 09:54:50;;;;;;;;;;;19.00;94.50;;;;;;5089094;28;19998;-71
2023/09/28 09:57:17;;;;;;;;;;;19.00;94.20;;;;;;5087938;28;20028;-71
2023/09/28 09:59:46;;;;;;;;;;;19.10;94.50;;;;;;5079382;28;19947;-71
2023/09/28 10:02:19;;;;;;;;;;;19.10;94.30;;;;;;5089310;28;19917;-71
2023/09/28 10:04:45;;;;;;;;;;;19.10;94.40;;;;;;5090831;28;19962;-71
2023/09/28 10:07:12;;;;;;;;;;;19.20;94.30;;;;;;5082304;28;19912;-71
2023/09/28 10:09:39;;;;;;;;;;;19.20;94.30;;;;;;5090736;28;20250;-71
2023/09/28 10:12:04;;;;;;;;;;;19.20;94.20;;;;;;5081693;28;19961;-71
2023/09/28 10:14:30;;;;;;;;;;;19.20;94.10;;;;;;5090521;28;19916;-71
2023/09/28 10:16:56;;;;;;;;;;;19.30;94.30;;;;;;5082382;28;20318;-71
2023/09/28 10:19:22;;;;;;;;;;;19.30;94.30;;;;;;5085586;28;20380;-71
2023/09/28 10:21:49;;;;;;;;;;;19.30;94.10;;;;;;5102543;28;19916;-71
2023/09/28 10:24:17;;;;;;;;;;;19.40;94.10;;;;;;5092008;28;19912;-71
2023/09/28 10:26:47;;;;;;;;;;;19.40;94.20;;;;;;5096122;28;19916;-71
2023/09/28 10:29:17;;;;;;;;;;;19.40;94.20;;;;;;5082195;28;19995;-71
2023/09/28 10:31:43;;;;;;;;;;;19.40;94.10;;;;;;5088820;28;19908;-71
2023/09/28 10:34:09;;;;;;;;;;;19.50;94.10;;;;;;5081538;28;20354;-71
2023/09/28 10:36:37;;;;;;;;;;;19.50;94.00;;;;;;5090468;28;19912;-71
2023/09/28 10:39:05;;;;;;;;;;;19.50;94.00;;;;;;5089115;28;19912;-71
2023/09/28 10:41:31;;;;;;;;;;;19.60;94.10;;;;;;5086005;28;19964;-71
2023/09/28 10:43:56;;;;;;;;;;;19.60;94.00;;;;;;5087850;28;19916;-71
2023/09/28 10:46:23;;;;;;;;;;;19.60;94.00;;;;;;5090616;28;19912;-71
2023/09/28 10:48:51;;;;;;;;;;;19.70;94.00;;;;;;5097717;28;20371;-71
2023/09/28 10:51:18;;;;;;;;;;;19.70;93.80;;;;;;5089412;28;19916;-71
2023/09/28 10:53:44;;;;;;;;;;;19.70;94.00;;;;;;5088991;28;19992;-71
2023/09/28 10:56:12;;;;;;;;;;;19.70;93.90;;;;;;5090575;28;19955;-71
2023/09/28 10:58:38;;;;;;;;;;;19.80;94.00;;;;;;5091064;28;19949;-71
2023/09/28 11:01:05;;;;;;;;;;;19.80;94.00;;;;;;5090620;28;19912;-71
2023/09/28 11:03:34;;;;;;;;;;;19.80;93.90;;;;;;5090514;28;19923;-71
2023/09/28 11:06:00;;;;;;;;;;;19.80;94.20;;;;;;5090230;28;19908;-71
2023/09/28 11:08:26;;;;;;;;;;;19.90;93.90;;;;;;5090777;28;19919;-71
2023/09/28 11:10:55;;;;;;;;;;;19.90;93.70;;;;;;5090602;28;19920;-71
2023/09/28 11:13:21;;;;;;;;;;;20.00;94.00;;;;;;5097589;28;20498;-71
2023/09/28 11:15:47;;;;;;;;;;;20.00;93.90;;;;;;5090110;28;19919;-71
2023/09/28 11:18:12;;;;;;;;;;;20.00;93.80;;;;;;5090153;28;19912;-71
2023/09/28 11:20:38;;;;;;;;;;;20.00;93.90;;;;;;5090072;28;19957;-71
2023/09/28 11:23:04;;;;;;;;;;;20.00;93.90;;;;;;5095434;28;19922;-71
2023/09/28 11:25:30;;;;;;;;;;;20.00;93.90;;;;;;5089819;28;20003;-71
2023/09/28 11:27:55;;;;;;;;;;;20.10;93.80;;;;;;5089639;28;20620;-71
2023/09/28 11:30:21;;;;;;;;;;;20.10;93.70;;;;;;5093174;28;19911;-71
2023/09/28 11:32:48;;;;;;;;;;;20.10;94.00;;;;;;5094671;28;20465;-71
2023/09/28 11:35:15;;;;;;;;;;;20.20;93.70;;;;;;5097632;28;19907;-71
2023/09/28 11:37:41;;;;;;;;;;;20.20;93.70;;;;;;5116185;27;19916;-71
2023/09/28 11:40:07;;;;;;;;;;;20.20;93.70;;;;;;5095634;28;20430;-71
2023/09/28 11:42:32;;;;;;;;;;;20.30;93.80;;;;;;5089938;28;19920;-71
2023/09/28 11:44:58;;;;;;;;;;;20.30;93.60;;;;;;5097330;28;19961;-71
2023/09/28 11:47:23;;;;;;;;;;;20.30;93.60;;;;;;5098001;28;20289;-71
2023/09/28 11:49:50;;;;;;;;;;;20.30;93.60;;;;;;5095858;28;19918;-71
2023/09/28 11:52:16;;;;;;;;;;;20.40;93.70;;;;;;5099844;28;19919;-71
2023/09/28 11:54:43;;;;;;;;;;;20.40;93.60;;;;;;5099172;28;19974;-71
2023/09/28 11:57:08;;;;;;;;;;;20.40;93.70;;;;;;5089889;28;19916;-71
2023/09/28 11:59:36;;;;;;;;;;;20.40;93.60;;;;;;5122604;27;19908;-71
2023/09/28 12:02:01;;;;;;;;;;;20.50;93.80;;;;;;5098073;28;19911;-71
2023/09/28 12:04:27;;;;;;;;;;;20.50;93.60;;;;;;5099799;28;19936;-71
2023/09/28 12:06:53;;;;;;;;;;;20.50;93.70;;;;;;5101174;28;19989;-71
2023/09/28 12:09:19;;;;;;;;;;;20.60;93.60;;;;;;5090552;28;19913;-71
2023/09/28 12:11:45;;;;;;;;;;;20.60;93.60;;;;;;5078190;28;19912;-71
2023/09/28 12:14:11;;;;;;;;;;;20.60;93.70;;;;;;5075398;28;19913;-71
2023/09/28 12:16:36;;;;;;;;;;;20.60;93.60;;;;;;5088592;28;19937;-71
2023/09/28 12:19:02;;;;;;;;;;;20.60;93.60;;;;;;5088070;28;19912;-71
2023/09/28 12:21:27;;;;;;;;;;;20.70;93.60;;;;;;5087809;28;19933;-71
2023/09/28 12:23:53;;;;;;;;;;;20.70;93.70;;;;;;5095745;28;19912;-71
2023/09/28 12:26:18;;;;;;;;;;;20.70;93.60;;;;;;5100995;28;20419;-71
2023/09/28 12:28:44;;;;;;;;;;;20.70;93.70;;;;;;5092520;28;19912;-71
2023/09/28 12:31:10;;;;;;;;;;;20.80;93.60;;;;;;5091066;28;19912;-71
2023/09/28 12:33:36;;;;;;;;;;;20.80;93.50;;;;;;5091279;28;19919;-71
2023/09/28 12:36:02;;;;;;;;;;;20.80;93.70;;;;;;5096780;28;19920;-71
2023/09/28 12:38:27;;;;;;;;;;;20.80;93.50;;;;;;5103991;28;19947;-71
2023/09/28 12:40:53;;;;;;;;;;;20.80;93.50;;;;;;5096665;28;19932;-71
2023/09/28 12:43:20;;;;;;;;;;;20.80;93.50;;;;;;5102578;28;19970;-71
2023/09/28 12:45:45;;;;;;;;;;;20.90;93.50;;;;;;5098664;28;20267;-71
2023/09/28 12:48:17;;;;;;;;;;;20.90;93.50;;;;;;5104613;28;19919;-71
2023/09/28 12:50:42;;;;;;;;;;;20.90;93.40;;;;;;5092388;28;19921;-71
2023/09/28 12:53:08;;;;;;;;;;;21.00;93.50;;;;;;5092812;28;19908;-71
2023/09/28 12:55:34;;;;;;;;;;;21.00;93.40;;;;;;5093736;28;19915;-71
2023/09/28 12:58:00;;;;;;;;;;;21.00;93.40;;;;;;5093413;28;20331;-71
2023/09/28 13:00:26;;;;;;;;;;;21.20;93.30;;;;;;5093397;28;19912;-71
2023/09/28 13:02:54;;;;;;;;;;;21.20;93.30;;;;;;5093177;28;19919;-71
2023/09/28 13:05:21;;;;;;;;;;;21.20;93.20;;;;;;5093173;28;20476;-71
2023/09/28 13:07:48;;;;;;;;;;;21.30;93.20;;;;;;5091919;28;19912;-71
2023/09/28 13:10:15;;;;;;;;;;;21.30;93.20;;;;;;5093116;28;19908;-71
2023/09/28 13:12:41;;;;;;;;;;;21.20;93.20;;;;;;5093032;28;19917;-71
2023/09/28 13:15:07;;;;;;;;;;;21.30;93.20;;;;;;5092444;28;20296;-71
2023/09/28 13:17:33;;;;;;;;;;;21.30;93.20;;;;;;5093146;28;19912;-71
2023/09/28 13:19:58;;;;;;;;;;;21.30;93.20;;;;;;5093087;28;19916;-71
2023/09/28 13:22:24;;;;;;;;;;;21.30;93.10;;;;;;5092888;28;20015;-71
2023/09/28 13:24:50;;;;;;;;;;;21.40;93.20;;;;;;5092477;28;20341;-71
2023/09/28 13:27:17;;;;;;;;;;;21.40;93.20;;;;;;5098129;28;20311;-71
2023/09/28 13:29:43;;;;;;;;;;;21.40;93.10;;;;;;5092593;28;19912;-71
2023/09/28 13:32:12;;;;;;;;;;;21.40;93.20;;;;;;5090934;28;19962;-71
2023/09/28 13:34:38;;;;;;;;;;;21.40;93.10;;;;;;5092091;28;19961;-71
2023/09/28 13:37:04;;;;;;;;;;;21.40;93.10;;;;;;5098866;28;19916;-71
2023/09/28 13:39:33;;;;;;;;;;;21.40;93.10;;;;;;5092450;28;19989;-71
2023/09/28 13:42:04;;;;;;;;;;;21.40;93.10;;;;;;5092824;28;19916;-71
2023/09/28 13:44:30;;;;;;;;;;;21.40;93.10;;;;;;5088762;28;20206;-71
2023/09/28 13:46:55;;;;;;;;;;;21.40;93.10;;;;;;5092248;28;19911;-71
2023/09/28 13:49:21;;;;;;;;;;;21.40;93.10;;;;;;5094767;28;20456;-71
2023/09/28 13:51:50;;;;;;;;;;;21.40;93.30;;;;;;5092363;28;20387;-71
2023/09/28 13:54:15;;;;;;;;;;;21.40;93.20;;;;;;5094001;28;19912;-71
2023/09/28 13:56:41;;;;;;;;;;;21.40;93.20;;;;;;5098079;28;20364;-71
2023/09/28 13:59:09;;;;;;;;;;;21.40;93.20;;;;;;5092388;28;20428;-71
2023/09/28 14:01:36;;;;;;;;;;;21.30;93.20;;;;;;5107003;28;19923;-71
2023/09/28 14:04:01;;;;;;;;;;;21.30;93.20;;;;;;5089938;28;20335;-71
2023/09/28 14:06:28;;;;;;;;;;;21.30;93.10;;;;;;5099737;28;19916;-71
2023/09/28 14:08:56;;;;;;;;;;;21.30;93.30;;;;;;5091302;28;19953;-71
2023/09/28 14:11:25;;;;;;;;;;;21.30;93.30;;;;;;5090128;28;20277;-72
2023/09/28 14:13:51;;;;;;;;;;;21.30;93.30;;;;;;5090815;28;19916;-71